Etusivu
METAR-TAF:

METAR-TAF

Lentoasemat :

Meadow Lake, Saskatchewan, Kanada

Leveyspiiri: 54-08N, Pituuspiiri: 108-31W, korkeus merenpinnasta: 480 m

Tämänhetkinen sää

Tämä raportti tehtiin 40 minuuttia sitten, kello 12.00 UTC
Tuuli 9 kn idästä/kaakosta
Lämpötila -10°C
Kosteus 92%
Ilmanpaine 1011 hPa
Näkyvyys: 24.1 km
Pilvistä 1000 ft:n korkeudessa

METAR: CYLJ 211200Z 12009KT 15SM OVC010 M10/M11 A2984 RMK ST8 SLP142

Aika: 06:40 (12:40 UTC)


TAF: puuttuu

Säähavainnot ja -ennusteet yli 4000 lentoasemalta (METAR- ja TAF-raportit).

Käytössä olevat sääasemat on merkitty karttaan keltaisilla ja punaisilla pisteillä.

Aseta hiiri pisteen päälle nähdäksesi sääaseman nimen.

Klikkaa sitten nähdäksesi säähavainnot ja -ennusteet.

Kartan vaihtaminen: klikkaa mustalla rastilla varustettuja vihreitä pisteitä, niin voit zoomata sisään; viivalla varustettua vihreää pistettä, niin voit zoomata ulos tai vihreitä nuolia, niin pääset viereisille kartoille.


METAR-TAF: